createdAt,value
2018-11-20T00:00:54.307Z,26.07
2018-11-20T00:03:57.774Z,25.85
2018-11-20T00:06:57.667Z,22.10
2018-11-20T00:09:44.919Z,23.83
2018-11-20T00:12:25.039Z,24.10
2018-11-20T00:15:19.570Z,23.00
2018-11-20T00:18:06.941Z,25.32
2018-11-20T00:21:13.673Z,23.92
2018-11-20T00:24:08.344Z,22.67
2018-11-20T00:26:51.422Z,24.15
2018-11-20T00:29:38.630Z,24.75
2018-11-20T00:32:26.005Z,23.75
2018-11-20T00:35:23.542Z,26.15
2018-11-20T00:38:08.307Z,26.15
2018-11-20T00:40:58.338Z,23.98
2018-11-20T00:43:43.066Z,26.27
2018-11-20T00:46:40.338Z,23.80
2018-11-20T00:49:27.608Z,25.32
2018-11-20T00:52:09.050Z,24.80
2018-11-20T00:55:09.615Z,23.67
2018-11-20T00:57:57.083Z,24.47
2018-11-20T01:00:57.552Z,23.18
2018-11-20T01:03:44.871Z,25.70
2018-11-20T01:06:27.122Z,25.02
2018-11-20T01:09:20.441Z,25.43
2018-11-20T01:11:59.387Z,25.12
2018-11-20T01:14:46.927Z,25.40
2018-11-20T01:17:34.174Z,24.55
2018-11-20T01:20:40.674Z,23.67
2018-11-20T01:23:21.438Z,24.60
2018-11-20T01:26:08.348Z,25.72
2018-11-20T01:28:50.345Z,23.20
2018-11-20T01:31:37.520Z,23.98
2018-11-20T01:34:25.994Z,24.00
2018-11-20T01:37:04.049Z,24.40
2018-11-20T01:39:55.491Z,24.90
2018-11-20T01:42:46.849Z,24.25
2018-11-20T01:45:35.014Z,24.75
2018-11-20T01:48:17.851Z,23.95
2018-11-20T01:51:18.196Z,25.88
2018-11-20T01:54:01.202Z,25.45
2018-11-20T01:56:48.540Z,23.62
2018-11-20T01:59:48.860Z,23.35
2018-11-20T02:02:30.416Z,23.50
2018-11-20T02:05:31.175Z,24.95
2018-11-20T02:08:28.620Z,23.02
2018-11-20T02:11:15.921Z,24.15
2018-11-20T02:14:10.043Z,23.67
2018-11-20T02:17:02.987Z,25.82
2018-11-20T02:19:58.402Z,24.87
2018-11-20T02:22:41.239Z,24.15
2018-11-20T02:25:35.631Z,23.32
2018-11-20T02:28:22.975Z,23.10
2018-11-20T02:31:10.354Z,23.42
2018-11-20T02:33:58.872Z,24.05
2018-11-20T02:36:42.651Z,23.55
2018-11-20T02:39:30.241Z,24.92
2018-11-20T02:42:07.776Z,24.10
2018-11-20T02:44:49.092Z,24.95
2018-11-20T02:47:45.302Z,22.22
2018-11-20T02:50:43.021Z,24.82
2018-11-20T02:53:30.452Z,23.05
2018-11-20T02:56:22.748Z,25.08
2018-11-20T02:59:29.463Z,25.40
2018-11-20T03:02:18.215Z,23.85
2018-11-20T03:05:05.992Z,22.10
2018-11-20T03:07:45.878Z,26.45
2018-11-20T03:10:32.728Z,24.50
2018-11-20T03:13:26.988Z,23.52
2018-11-20T03:16:21.195Z,23.05
2018-11-20T03:19:08.284Z,24.90
2018-11-20T03:21:48.815Z,27.02
2018-11-20T03:24:37.316Z,23.30
2018-11-20T03:27:20.074Z,22.90
2018-11-20T03:30:34.187Z,23.92
2018-11-20T03:33:33.351Z,23.80
2018-11-20T03:36:26.632Z,24.50
2018-11-20T03:39:18.125Z,23.32
2018-11-20T03:42:09.349Z,23.18
2018-11-20T03:44:56.593Z,21.05
2018-11-20T03:47:43.436Z,23.75
2018-11-20T03:50:39.714Z,23.12
2018-11-20T03:53:43.211Z,24.55
2018-11-20T03:56:31.699Z,22.32
2018-11-20T03:59:32.211Z,22.05
2018-11-20T04:02:18.241Z,23.05
2018-11-20T04:05:02.880Z,21.65
2018-11-20T04:08:06.467Z,22.10
2018-11-20T04:11:03.732Z,19.27
2018-11-20T04:13:50.489Z,22.25
2018-11-20T04:16:48.139Z,22.52
2018-11-20T04:19:37.764Z,20.50
2018-11-20T04:22:24.994Z,23.45
2018-11-20T04:25:14.946Z,20.62
2018-11-20T04:28:05.010Z,22.25
2018-11-20T04:31:21.789Z,24.15
2018-11-20T04:34:12.978Z,23.15
2018-11-20T04:37:09.514Z,22.07
2018-11-20T04:40:16.299Z,23.60
2018-11-20T04:43:01.179Z,24.65
2018-11-20T04:45:48.341Z,23.18
2018-11-20T04:48:35.719Z,22.95
2018-11-20T04:51:24.351Z,24.37
2018-11-20T04:54:04.836Z,25.88
2018-11-20T04:56:47.296Z,24.00
2018-11-20T04:59:34.612Z,23.65
2018-11-20T05:02:16.703Z,23.32
2018-11-20T05:05:05.209Z,24.70
2018-11-20T05:07:50.950Z,24.02
2018-11-20T05:10:40.403Z,23.90
2018-11-20T05:13:18.332Z,23.98
2018-11-20T05:16:12.209Z,23.35
2018-11-20T05:19:06.459Z,23.55
2018-11-20T05:21:53.515Z,25.52
2018-11-20T05:24:38.865Z,24.98
2018-11-20T05:27:27.361Z,24.87
2018-11-20T05:30:14.376Z,25.35
2018-11-20T05:33:01.520Z,25.62
2018-11-20T05:35:48.870Z,23.98
2018-11-20T05:38:40.490Z,23.50
2018-11-20T05:41:47.107Z,22.90
2018-11-20T05:44:34.201Z,23.85
2018-11-20T05:47:22.725Z,23.60
2018-11-20T05:50:07.494Z,23.30
2018-11-20T05:52:45.460Z,23.73
2018-11-20T05:55:34.274Z,23.20
2018-11-20T05:58:13.748Z,25.90
2018-11-20T06:00:57.759Z,21.52
2018-11-20T06:03:45.022Z,24.40
2018-11-20T06:06:32.873Z,21.95
2018-11-20T06:09:17.897Z,22.17
2018-11-20T06:12:12.852Z,24.35
2018-11-20T06:15:19.535Z,22.13
2018-11-20T06:18:10.654Z,23.27
2018-11-20T06:21:00.671Z,22.75
2018-11-20T06:23:47.935Z,22.52
2018-11-20T06:26:34.925Z,22.50
2018-11-20T06:29:16.966Z,22.35
2018-11-20T06:32:16.124Z,24.75
2018-11-20T06:35:10.403Z,23.25
2018-11-20T06:38:03.140Z,23.25
2018-11-20T06:40:53.756Z,22.75
2018-11-20T06:44:06.511Z,22.75
2018-11-20T06:46:45.405Z,22.00
2018-11-20T06:49:49.045Z,23.10
2018-11-20T06:52:30.204Z,22.22
2018-11-20T06:58:24.015Z,21.20
2018-11-20T07:01:07.107Z,22.80
2018-11-20T07:03:54.489Z,19.90
2018-11-20T07:06:57.669Z,19.17
2018-11-20T07:09:45.236Z,20.40
2018-11-20T07:12:34.660Z,21.85
2018-11-20T07:15:32.408Z,21.20
2018-11-20T07:18:26.892Z,21.15
2018-11-20T07:21:22.217Z,20.85
2018-11-20T07:24:17.862Z,20.88
2018-11-20T07:44:00.903Z,22.93
2018-11-20T07:46:48.059Z,22.98
2018-11-20T07:49:35.651Z,24.37
2018-11-20T07:52:23.020Z,24.32
2018-11-20T07:55:26.805Z,25.80
2018-11-20T07:58:22.813Z,29.55
2018-11-20T08:01:06.311Z,24.70
2018-11-20T08:03:51.493Z,24.75
2018-11-20T08:06:34.499Z,23.50
2018-11-20T08:09:29.753Z,24.85
2018-11-20T08:12:18.239Z,22.98
2018-11-20T08:15:12.875Z,23.35
2018-11-20T08:18:00.182Z,22.77
2018-11-20T08:20:46.991Z,23.25
2018-11-20T08:23:31.235Z,22.42
2018-11-20T08:26:10.875Z,23.90
2018-11-20T08:28:58.635Z,21.55
2018-11-20T08:31:57.542Z,23.67
2018-11-20T08:35:04.265Z,24.55
2018-11-20T08:38:04.913Z,22.85
2018-11-20T08:40:52.204Z,25.50
2018-11-20T08:43:49.436Z,23.47
2018-11-20T08:46:46.080Z,25.95
2018-11-20T08:49:33.252Z,25.90
2018-11-20T08:52:20.303Z,25.72
2018-11-20T08:55:06.491Z,25.15
2018-11-20T08:57:59.597Z,24.07
2018-11-20T09:00:43.338Z,26.90
2018-11-20T09:03:30.427Z,27.60
2018-11-20T09:06:12.808Z,26.73
2018-11-20T09:08:50.342Z,20.20
2018-11-20T09:11:37.931Z,22.00
2018-11-20T09:14:44.761Z,25.02
2018-11-20T09:17:42.080Z,21.87
2018-11-20T09:20:28.292Z,26.10
2018-11-20T09:23:22.774Z,24.32
2018-11-20T09:26:17.502Z,24.75
2018-11-20T09:29:04.912Z,23.50
2018-11-20T09:31:52.379Z,24.30
2018-11-20T09:37:28.742Z,24.90
2018-11-20T09:40:55.053Z,23.65
2018-11-20T09:43:46.194Z,24.70
2018-11-20T09:46:43.923Z,22.45
2018-11-20T09:49:26.576Z,25.37
2018-11-20T09:52:21.150Z,24.10
2018-11-20T09:55:18.723Z,23.40
2018-11-20T09:58:10.161Z,24.55
2018-11-20T10:00:57.360Z,25.88
2018-11-20T10:03:44.825Z,25.90
2018-11-20T10:06:27.825Z,27.90
2018-11-20T10:09:22.322Z,24.72
2018-11-20T10:12:03.184Z,22.93
2018-11-20T10:14:49.978Z,27.93
2018-11-20T10:17:41.082Z,24.70
2018-11-20T10:20:29.018Z,25.15
2018-11-20T10:23:21.416Z,25.12
2018-11-20T10:26:08.358Z,25.65
2018-11-20T10:29:03.083Z,25.75
2018-11-20T10:31:51.133Z,25.95
2018-11-20T10:34:31.726Z,27.05
2018-11-20T10:37:23.205Z,27.50
2018-11-20T10:40:03.289Z,25.02
2018-11-20T10:42:54.792Z,24.90
2018-11-20T10:45:54.958Z,24.98
2018-11-20T10:48:58.574Z,24.60
2018-11-20T10:51:50.150Z,25.55
2018-11-20T10:54:36.634Z,25.62
2018-11-20T10:57:32.701Z,26.10
2018-11-20T11:00:19.800Z,24.77
2018-11-20T11:03:07.125Z,24.80
2018-11-20T11:05:54.348Z,24.60
2018-11-20T11:08:42.310Z,24.40
2018-11-20T11:11:26.312Z,24.72
2018-11-20T11:14:26.975Z,24.67
2018-11-20T11:17:13.977Z,23.27
2018-11-20T11:19:57.854Z,23.20
2018-11-20T11:22:48.881Z,22.62
2018-11-20T11:25:49.644Z,21.73
2018-11-20T11:28:37.045Z,23.62
2018-11-20T11:31:28.483Z,24.57
2018-11-20T11:34:23.824Z,24.92
2018-11-20T11:37:11.187Z,24.85
2018-11-20T11:39:48.956Z,24.57
2018-11-20T11:42:38.840Z,22.32
2018-11-20T11:45:19.817Z,23.05
2018-11-20T11:48:07.439Z,22.87
2018-11-20T11:50:54.702Z,23.15
2018-11-20T11:53:43.560Z,21.68
2018-11-20T11:56:27.084Z,23.20
2018-11-20T11:59:27.085Z,24.07
2018-11-20T12:04:49.443Z,22.32
2018-11-20T12:07:53.025Z,22.05
2018-11-20T12:10:53.664Z,21.87
2018-11-20T12:13:37.236Z,23.22
2018-11-20T12:16:38.713Z,23.18
2018-11-20T12:19:35.990Z,21.48
2018-11-20T12:22:30.452Z,23.92
2018-11-20T12:25:08.941Z,23.02
2018-11-20T12:27:56.576Z,23.22
2018-11-20T12:30:42.792Z,22.52
2018-11-20T12:33:41.939Z,23.32
2018-11-20T12:36:22.570Z,23.73
2018-11-20T12:39:11.052Z,22.60
2018-11-20T12:41:52.609Z,22.58
2018-11-20T12:44:41.854Z,22.80
2018-11-20T12:47:26.747Z,24.12
2018-11-20T12:50:13.334Z,24.67
2018-11-20T12:53:02.516Z,23.52
2018-11-20T12:55:49.283Z,23.73
2018-11-20T12:58:43.447Z,23.75
2018-11-20T13:01:22.645Z,23.55
2018-11-20T13:04:11.203Z,22.48
2018-11-20T13:07:02.939Z,24.35
2018-11-20T13:10:00.977Z,24.10
2018-11-20T13:12:47.944Z,23.32
2018-11-20T13:15:42.509Z,26.17
2018-11-20T13:18:31.079Z,22.05
2018-11-20T13:21:28.663Z,23.50
2018-11-20T13:24:09.858Z,24.60
2018-11-20T13:26:58.064Z,25.75
2018-11-20T13:29:45.467Z,24.75
2018-11-20T13:32:36.923Z,23.92
2018-11-20T13:35:28.789Z,26.07
2018-11-20T13:38:18.648Z,25.70
2018-11-20T13:41:55.390Z,26.68
2018-11-20T13:45:00.202Z,23.65
2018-11-20T13:47:48.662Z,25.92
2018-11-20T13:50:45.946Z,26.60
2018-11-20T13:53:46.699Z,29.23
2018-11-20T13:56:44.267Z,21.95
2018-11-20T13:59:31.238Z,25.72
2018-11-20T14:02:18.468Z,27.67
2018-11-20T14:05:05.766Z,24.35
2018-11-20T14:07:54.823Z,25.57
2018-11-20T14:10:52.589Z,25.85
2018-11-20T14:13:54.544Z,27.75
2018-11-20T14:16:52.127Z,24.18
2018-11-20T14:19:37.423Z,25.70
2018-11-20T14:22:24.737Z,25.68
2018-11-20T14:25:12.624Z,25.70
2018-11-20T14:28:07.247Z,26.37
2018-11-20T14:30:54.472Z,26.17
2018-11-20T14:33:41.602Z,25.27
2018-11-20T14:36:28.623Z,27.10
2018-11-20T14:39:15.025Z,26.87
2018-11-20T14:42:02.399Z,27.30
2018-11-20T14:44:54.047Z,25.95
2018-11-20T14:47:41.300Z,27.07
2018-11-20T14:50:38.462Z,26.23
2018-11-20T14:53:22.002Z,27.35
2018-11-20T14:56:31.214Z,27.15
2018-11-20T14:59:18.162Z,23.55
2018-11-20T15:02:05.519Z,28.40
2018-11-20T15:05:11.882Z,27.15
2018-11-20T15:08:12.460Z,25.92
2018-11-20T15:10:57.874Z,25.32
2018-11-20T15:13:55.431Z,27.67
2018-11-20T15:16:43.469Z,30.10
2018-11-20T15:19:35.647Z,26.42
2018-11-20T15:22:39.146Z,27.22
2018-11-20T15:25:42.717Z,27.65
2018-11-20T15:28:24.236Z,26.12
2018-11-20T15:31:12.756Z,26.95
2018-11-20T15:34:02.624Z,28.70
2018-11-20T15:36:51.139Z,29.07
2018-11-20T15:39:39.019Z,26.37
2018-11-20T15:42:40.019Z,27.00
2018-11-20T15:45:37.393Z,28.80
2018-11-20T15:48:27.073Z,25.08
2018-11-20T15:51:21.471Z,27.50
2018-11-20T15:54:10.003Z,29.72
2018-11-20T15:57:07.620Z,27.22
2018-11-20T15:59:56.081Z,26.73
2018-11-20T16:02:37.967Z,26.60
2018-11-20T16:05:26.966Z,26.75
2018-11-20T16:08:21.596Z,27.67
2018-11-20T16:11:12.718Z,28.05
2018-11-20T16:13:55.469Z,26.12
2018-11-20T16:16:46.825Z,28.67
2018-11-20T16:19:34.129Z,27.58
2018-11-20T16:22:21.333Z,25.68
2018-11-20T16:25:08.297Z,27.93
2018-11-20T16:28:09.091Z,30.20
2018-11-20T16:30:56.536Z,28.47
2018-11-20T16:33:33.486Z,25.97
2018-11-20T16:36:14.073Z,26.05
2018-11-20T16:39:05.398Z,26.10
2018-11-20T16:41:52.706Z,28.27
2018-11-20T16:44:39.503Z,28.80
2018-11-20T16:47:39.806Z,26.12
2018-11-20T17:05:25.299Z,26.87
2018-11-20T17:08:06.767Z,27.00
2018-11-20T17:10:54.040Z,27.10
2018-11-20T17:13:51.758Z,28.30
2018-11-20T17:20:03.779Z,26.25
2018-11-20T17:22:56.492Z,29.40
2018-11-20T17:25:43.556Z,28.67
2018-11-20T17:28:38.010Z,27.42
2018-11-20T17:47:26.133Z,26.20
2018-11-20T17:50:13.471Z,27.98
2018-11-20T17:52:56.245Z,28.80
2018-11-20T17:55:53.865Z,27.98
2018-11-20T17:58:48.190Z,27.73
2018-11-20T18:01:41.429Z,28.70
2018-11-20T18:40:13.407Z,28.65
2018-11-20T18:46:39.173Z,29.35
2018-11-20T18:57:43.522Z,26.73
2018-11-20T19:00:44.017Z,31.15
2018-11-20T19:03:53.631Z,28.62
2018-11-20T19:06:35.333Z,30.62
2018-11-20T19:09:24.861Z,27.58
2018-11-20T19:12:04.167Z,30.00
2018-11-20T19:14:45.471Z,27.93
2018-11-20T19:18:11.201Z,28.30
2018-11-20T19:23:42.399Z,29.85
2018-11-20T19:52:12.031Z,26.35
2018-11-20T19:54:50.539Z,26.65
2018-11-20T19:57:39.105Z,27.40
2018-11-20T20:03:02.521Z,29.77
2018-11-20T20:05:49.159Z,31.10
2018-11-20T20:09:14.712Z,29.25
2018-11-20T20:12:14.540Z,28.73
2018-11-20T20:15:02.276Z,27.40
2018-11-20T20:17:48.817Z,27.67
2018-11-20T20:20:55.685Z,29.00
2018-11-20T20:23:52.444Z,28.23
2018-11-20T20:26:38.762Z,29.45
2018-11-20T20:29:25.519Z,28.73
2018-11-20T20:32:12.387Z,29.80
2018-11-20T20:34:50.818Z,26.80
2018-11-20T20:37:41.983Z,28.80
2018-11-20T20:40:34.077Z,28.40
2018-11-20T20:43:22.288Z,27.77
2018-11-20T20:46:14.347Z,27.70
2018-11-20T20:49:07.223Z,29.02
2018-11-20T20:51:42.540Z,26.42
2018-11-20T20:54:38.257Z,27.60
2018-11-20T20:57:14.028Z,30.25
2018-11-20T21:00:07.365Z,27.80
2018-11-20T21:02:43.348Z,25.27
2018-11-20T21:05:51.339Z,29.10
2018-11-20T21:08:50.673Z,27.98
2018-11-20T21:11:38.375Z,30.25
2018-11-20T21:14:26.135Z,29.48
2018-11-20T21:17:16.874Z,29.23
2018-11-20T21:20:08.028Z,29.18
2018-11-20T21:22:54.717Z,29.45
2018-11-20T21:25:57.606Z,28.38
2018-11-20T21:28:55.057Z,27.67
2018-11-20T21:31:35.978Z,28.35
2018-11-20T21:34:17.225Z,27.58
2018-11-20T21:37:13.846Z,28.65
2018-11-20T21:39:55.211Z,28.90
2018-11-20T21:42:55.257Z,28.50
2018-11-20T21:45:44.735Z,29.45
2018-11-20T21:48:35.300Z,31.45
2018-11-20T21:51:16.726Z,28.23
2018-11-20T21:54:03.132Z,29.95
2018-11-20T21:56:53.560Z,27.55
2018-11-20T21:59:42.109Z,27.87
2018-11-20T22:02:31.628Z,28.38
2018-11-20T22:05:19.145Z,28.40
2018-11-20T22:08:25.185Z,29.87
2018-11-20T22:11:27.748Z,26.68
2018-11-20T22:14:11.948Z,29.80
2018-11-20T22:16:53.211Z,29.95
2018-11-20T22:19:47.288Z,29.65
2018-11-20T22:22:35.004Z,27.10
2018-11-20T22:25:34.779Z,28.90
2018-11-20T22:28:21.229Z,27.98
2018-11-20T22:31:20.978Z,27.77
2018-11-20T22:34:07.129Z,27.75
2018-11-20T22:36:49.567Z,27.60
2018-11-20T22:39:35.783Z,27.32
2018-11-20T22:42:32.532Z,26.20
2018-11-20T22:45:23.089Z,29.15
2018-11-20T22:48:28.778Z,26.10
2018-11-20T22:51:15.101Z,29.10
2018-11-20T22:53:55.713Z,32.23
2018-11-20T22:56:52.347Z,29.32
2018-11-20T22:59:45.398Z,28.27
2018-11-20T23:02:22.418Z,27.67
2018-11-20T23:05:09.237Z,29.10
2018-11-20T23:07:44.983Z,28.32
2018-11-20T23:10:15.588Z,30.60
2018-11-20T23:12:44.144Z,28.15
2018-11-20T23:15:13.988Z,28.30
2018-11-20T23:17:42.597Z,28.67
2018-11-20T23:20:11.865Z,28.90
2018-11-20T23:22:40.324Z,30.08
2018-11-20T23:25:10.614Z,27.65
2018-11-20T23:27:39.145Z,30.02
2018-11-20T23:30:12.990Z,29.35
2018-11-20T23:32:41.758Z,29.45
2018-11-20T23:35:11.608Z,31.45
2018-11-20T23:37:40.981Z,29.55
2018-11-20T23:40:14.029Z,29.80
2018-11-20T23:42:42.861Z,30.25
2018-11-20T23:45:14.038Z,32.05
2018-11-20T23:47:42.569Z,30.48
2018-11-20T23:50:15.787Z,31.05
2018-11-20T23:52:44.309Z,32.60
2018-11-20T23:55:13.992Z,31.02
2018-11-20T23:57:42.446Z,29.98
